sensor_id;sensor_type;location;lat;lon;timestamp;temperature;humidity
21646;DHT22;10984;45.712;4.800;2023-07-28T00:00:37;22.30;1.00
21646;DHT22;10984;45.712;4.800;2023-07-28T00:03:03;22.20;1.00
21646;DHT22;10984;45.712;4.800;2023-07-28T00:05:29;22.20;1.00
21646;DHT22;10984;45.712;4.800;2023-07-28T00:07:54;22.20;1.00
21646;DHT22;10984;45.712;4.800;2023-07-28T00:10:20;22.20;1.00
21646;DHT22;10984;45.712;4.800;2023-07-28T00:12:45;22.20;1.00
21646;DHT22;10984;45.712;4.800;2023-07-28T00:15:11;22.20;1.00
21646;DHT22;10984;45.712;4.800;2023-07-28T00:17:37;22.20;1.00
21646;DHT22;10984;45.712;4.800;2023-07-28T00:20:03;22.20;1.00
21646;DHT22;10984;45.712;4.800;2023-07-28T00:22:28;22.20;1.00
21646;DHT22;10984;45.712;4.800;2023-07-28T00:24:54;22.30;1.00
21646;DHT22;10984;45.712;4.800;2023-07-28T00:27:20;22.30;1.00
21646;DHT22;10984;45.712;4.800;2023-07-28T00:29:45;22.30;1.00
21646;DHT22;10984;45.712;4.800;2023-07-28T00:32:11;22.20;1.00
21646;DHT22;10984;45.712;4.800;2023-07-28T00:34:37;22.20;1.00
21646;DHT22;10984;45.712;4.800;2023-07-28T00:37:02;22.20;1.00
21646;DHT22;10984;45.712;4.800;2023-07-28T00:39:28;22.30;1.00
21646;DHT22;10984;45.712;4.800;2023-07-28T00:41:54;22.20;1.00
21646;DHT22;10984;45.712;4.800;2023-07-28T00:44:19;22.20;1.00
21646;DHT22;10984;45.712;4.800;2023-07-28T00:46:45;22.20;1.00
21646;DHT22;10984;45.712;4.800;2023-07-28T00:49:11;22.10;1.00
21646;DHT22;10984;45.712;4.800;2023-07-28T00:51:37;22.10;1.00
21646;DHT22;10984;45.712;4.800;2023-07-28T00:54:22;22.00;1.00
21646;DHT22;10984;45.712;4.800;2023-07-28T00:56:48;22.00;1.00
21646;DHT22;10984;45.712;4.800;2023-07-28T00:59:14;22.00;1.00
21646;DHT22;10984;45.712;4.800;2023-07-28T01:01:40;21.90;1.00
21646;DHT22;10984;45.712;4.800;2023-07-28T01:04:06;21.90;1.00
21646;DHT22;10984;45.712;4.800;2023-07-28T01:09:43;21.80;1.00
21646;DHT22;10984;45.712;4.800;2023-07-28T01:12:11;21.80;1.00
21646;DHT22;10984;45.712;4.800;2023-07-28T01:14:36;21.80;1.00
21646;DHT22;10984;45.712;4.800;2023-07-28T01:17:02;21.90;1.00
21646;DHT22;10984;45.712;4.800;2023-07-28T01:19:28;21.80;1.00
21646;DHT22;10984;45.712;4.800;2023-07-28T01:27:34;21.70;1.00
21646;DHT22;10984;45.712;4.800;2023-07-28T01:30:00;21.70;1.00
21646;DHT22;10984;45.712;4.800;2023-07-28T01:32:26;21.70;1.00
21646;DHT22;10984;45.712;4.800;2023-07-28T01:34:51;21.60;1.00
21646;DHT22;10984;45.712;4.800;2023-07-28T01:37:17;21.60;1.00
21646;DHT22;10984;45.712;4.800;2023-07-28T01:39:43;21.60;1.00
21646;DHT22;10984;45.712;4.800;2023-07-28T01:42:08;21.60;1.00
21646;DHT22;10984;45.712;4.800;2023-07-28T01:44:34;21.60;1.00
21646;DHT22;10984;45.712;4.800;2023-07-28T01:47:00;21.60;1.00
21646;DHT22;10984;45.712;4.800;2023-07-28T01:49:25;21.60;1.00
21646;DHT22;10984;45.712;4.800;2023-07-28T01:51:51;21.60;1.00
21646;DHT22;10984;45.712;4.800;2023-07-28T01:54:16;21.60;1.00
21646;DHT22;10984;45.712;4.800;2023-07-28T01:56:42;21.60;1.00
21646;DHT22;10984;45.712;4.800;2023-07-28T01:59:07;21.60;1.00
21646;DHT22;10984;45.712;4.800;2023-07-28T02:01:34;21.60;1.00
21646;DHT22;10984;45.712;4.800;2023-07-28T02:04:00;21.60;1.00
21646;DHT22;10984;45.712;4.800;2023-07-28T02:06:25;21.60;1.00
21646;DHT22;10984;45.712;4.800;2023-07-28T02:08:53;21.60;1.00
21646;DHT22;10984;45.712;4.800;2023-07-28T02:11:18;21.60;1.00
21646;DHT22;10984;45.712;4.800;2023-07-28T02:13:44;21.60;1.00
21646;DHT22;10984;45.712;4.800;2023-07-28T02:16:09;21.60;1.00
21646;DHT22;10984;45.712;4.800;2023-07-28T02:18:35;21.60;1.00
21646;DHT22;10984;45.712;4.800;2023-07-28T02:21:01;21.50;1.00
21646;DHT22;10984;45.712;4.800;2023-07-28T02:23:26;21.50;1.00
21646;DHT22;10984;45.712;4.800;2023-07-28T02:25:52;21.50;1.00
21646;DHT22;10984;45.712;4.800;2023-07-28T02:28:18;21.40;1.00
21646;DHT22;10984;45.712;4.800;2023-07-28T02:30:43;21.40;1.00
21646;DHT22;10984;45.712;4.800;2023-07-28T02:33:09;21.40;1.00
21646;DHT22;10984;45.712;4.800;2023-07-28T02:35:34;21.30;1.00
21646;DHT22;10984;45.712;4.800;2023-07-28T02:38:01;21.20;2.20
21646;DHT22;10984;45.712;4.800;2023-07-28T02:40:27;21.20;1.20
21646;DHT22;10984;45.712;4.800;2023-07-28T02:42:53;21.20;6.50
21646;DHT22;10984;45.712;4.800;2023-07-28T02:45:18;21.20;2.30
21646;DHT22;10984;45.712;4.800;2023-07-28T02:47:45;21.20;11.50
21646;DHT22;10984;45.712;4.800;2023-07-28T02:50:10;21.10;15.00
21646;DHT22;10984;45.712;4.800;2023-07-28T02:52:36;21.10;19.90
21646;DHT22;10984;45.712;4.800;2023-07-28T02:55:01;21.10;23.80
21646;DHT22;10984;45.712;4.800;2023-07-28T02:57:27;21.10;26.60
21646;DHT22;10984;45.712;4.800;2023-07-28T02:59:53;21.00;34.80
21646;DHT22;10984;45.712;4.800;2023-07-28T03:02:18;21.00;35.80
21646;DHT22;10984;45.712;4.800;2023-07-28T03:04:44;21.00;38.10
21646;DHT22;10984;45.712;4.800;2023-07-28T03:07:10;20.90;42.20
21646;DHT22;10984;45.712;4.800;2023-07-28T03:09:35;20.90;40.00
21646;DHT22;10984;45.712;4.800;2023-07-28T03:12:01;20.90;42.60
21646;DHT22;10984;45.712;4.800;2023-07-28T03:14:28;20.90;39.40
21646;DHT22;10984;45.712;4.800;2023-07-28T03:16:54;20.90;38.40
21646;DHT22;10984;45.712;4.800;2023-07-28T03:19:20;20.80;43.40
21646;DHT22;10984;45.712;4.800;2023-07-28T03:21:46;20.80;43.50
21646;DHT22;10984;45.712;4.800;2023-07-28T03:24:11;20.80;45.40
21646;DHT22;10984;45.712;4.800;2023-07-28T03:26:37;20.70;47.80
21646;DHT22;10984;45.712;4.800;2023-07-28T03:29:03;20.70;50.10
21646;DHT22;10984;45.712;4.800;2023-07-28T03:31:28;20.70;57.70
21646;DHT22;10984;45.712;4.800;2023-07-28T03:33:54;20.70;62.60
21646;DHT22;10984;45.712;4.800;2023-07-28T03:36:19;20.70;79.60
21646;DHT22;10984;45.712;4.800;2023-07-28T03:38:45;20.70;90.00
21646;DHT22;10984;45.712;4.800;2023-07-28T03:41:11;20.70;91.30
21646;DHT22;10984;45.712;4.800;2023-07-28T03:43:37;20.70;92.40
21646;DHT22;10984;45.712;4.800;2023-07-28T03:46:03;20.60;95.60
21646;DHT22;10984;45.712;4.800;2023-07-28T03:48:28;20.50;98.80
21646;DHT22;10984;45.712;4.800;2023-07-28T03:50:54;20.60;97.20
21646;DHT22;10984;45.712;4.800;2023-07-28T03:53:20;20.50;97.20
21646;DHT22;10984;45.712;4.800;2023-07-28T03:55:45;20.50;98.70
21646;DHT22;10984;45.712;4.800;2023-07-28T03:58:11;20.50;99.90
21646;DHT22;10984;45.712;4.800;2023-07-28T04:00:37;20.40;99.90
21646;DHT22;10984;45.712;4.800;2023-07-28T04:03:02;20.40;99.90
21646;DHT22;10984;45.712;4.800;2023-07-28T04:05:28;20.40;99.90
21646;DHT22;10984;45.712;4.800;2023-07-28T04:07:53;20.30;99.90
21646;DHT22;10984;45.712;4.800;2023-07-28T04:10:19;20.30;99.90
21646;DHT22;10984;45.712;4.800;2023-07-28T04:12:45;20.30;99.90
21646;DHT22;10984;45.712;4.800;2023-07-28T04:15:10;20.30;99.90
21646;DHT22;10984;45.712;4.800;2023-07-28T04:17:36;20.20;99.90
21646;DHT22;10984;45.712;4.800;2023-07-28T04:20:02;20.20;99.90
21646;DHT22;10984;45.712;4.800;2023-07-28T04:22:27;20.10;99.90
21646;DHT22;10984;45.712;4.800;2023-07-28T04:24:53;20.10;99.90
21646;DHT22;10984;45.712;4.800;2023-07-28T04:27:19;20.10;99.90
21646;DHT22;10984;45.712;4.800;2023-07-28T04:29:45;20.20;99.90
21646;DHT22;10984;45.712;4.800;2023-07-28T04:32:10;20.10;99.90
21646;DHT22;10984;45.712;4.800;2023-07-28T04:34:36;20.10;99.90
21646;DHT22;10984;45.712;4.800;2023-07-28T04:37:02;20.00;99.90
21646;DHT22;10984;45.712;4.800;2023-07-28T04:39:27;20.00;99.90
21646;DHT22;10984;45.712;4.800;2023-07-28T04:41:53;20.10;99.90
21646;DHT22;10984;45.712;4.800;2023-07-28T04:44:18;20.10;99.90
21646;DHT22;10984;45.712;4.800;2023-07-28T04:46:45;20.10;99.90
21646;DHT22;10984;45.712;4.800;2023-07-28T04:49:13;20.20;99.90
21646;DHT22;10984;45.712;4.800;2023-07-28T04:51:39;20.20;96.60
21646;DHT22;10984;45.712;4.800;2023-07-28T04:54:04;20.20;90.90
21646;DHT22;10984;45.712;4.800;2023-07-28T04:56:30;20.60;83.10
21646;DHT22;10984;45.712;4.800;2023-07-28T04:58:56;21.30;19.20
21646;DHT22;10984;45.712;4.800;2023-07-28T05:01:22;22.20;1.00
21646;DHT22;10984;45.712;4.800;2023-07-28T05:03:47;23.20;1.00
21646;DHT22;10984;45.712;4.800;2023-07-28T05:06:13;24.10;1.00
21646;DHT22;10984;45.712;4.800;2023-07-28T05:08:39;25.00;1.00
21646;DHT22;10984;45.712;4.800;2023-07-28T05:11:05;25.90;1.00
21646;DHT22;10984;45.712;4.800;2023-07-28T05:13:30;26.60;1.00
21646;DHT22;10984;45.712;4.800;2023-07-28T05:15:56;27.10;1.00
21646;DHT22;10984;45.712;4.800;2023-07-28T05:18:22;27.80;1.00
21646;DHT22;10984;45.712;4.800;2023-07-28T05:20:47;28.10;1.00
21646;DHT22;10984;45.712;4.800;2023-07-28T05:23:13;28.00;1.00
21646;DHT22;10984;45.712;4.800;2023-07-28T05:25:38;28.10;1.00
21646;DHT22;10984;45.712;4.800;2023-07-28T05:28:04;28.20;99.90
21646;DHT22;10984;45.712;4.800;2023-07-28T05:30:29;28.40;99.90
21646;DHT22;10984;45.712;4.800;2023-07-28T05:32:55;29.00;99.90
21646;DHT22;10984;45.712;4.800;2023-07-28T05:35:21;29.80;99.90
21646;DHT22;10984;45.712;4.800;2023-07-28T05:37:46;30.50;99.90
21646;DHT22;10984;45.712;4.800;2023-07-28T05:40:12;31.20;99.90
21646;DHT22;10984;45.712;4.800;2023-07-28T05:42:38;31.90;99.90
21646;DHT22;10984;45.712;4.800;2023-07-28T05:45:04;32.50;99.90
21646;DHT22;10984;45.712;4.800;2023-07-28T05:47:30;33.10;58.30
21646;DHT22;10984;45.712;4.800;2023-07-28T05:49:56;33.60;1.00
21646;DHT22;10984;45.712;4.800;2023-07-28T05:52:21;33.80;1.00
21646;DHT22;10984;45.712;4.800;2023-07-28T05:54:50;33.30;1.00
21646;DHT22;10984;45.712;4.800;2023-07-28T05:57:15;34.00;1.00
21646;DHT22;10984;45.712;4.800;2023-07-28T05:59:41;34.40;1.00
21646;DHT22;10984;45.712;4.800;2023-07-28T06:02:07;34.00;1.00
21646;DHT22;10984;45.712;4.800;2023-07-28T06:04:32;34.70;1.00
21646;DHT22;10984;45.712;4.800;2023-07-28T06:06:58;35.10;1.00
21646;DHT22;10984;45.712;4.800;2023-07-28T06:09:23;35.20;1.00
21646;DHT22;10984;45.712;4.800;2023-07-28T06:11:49;35.80;99.90
21646;DHT22;10984;45.712;4.800;2023-07-28T06:14:15;36.30;99.90
21646;DHT22;10984;45.712;4.800;2023-07-28T06:16:40;36.70;99.90
21646;DHT22;10984;45.712;4.800;2023-07-28T06:19:06;36.40;99.90
21646;DHT22;10984;45.712;4.800;2023-07-28T06:21:33;36.60;1.00
21646;DHT22;10984;45.712;4.800;2023-07-28T06:23:59;37.30;1.00
21646;DHT22;10984;45.712;4.800;2023-07-28T06:26:25;36.70;1.00
21646;DHT22;10984;45.712;4.800;2023-07-28T06:28:51;37.20;1.00
21646;DHT22;10984;45.712;4.800;2023-07-28T06:31:16;37.20;1.00
21646;DHT22;10984;45.712;4.800;2023-07-28T06:33:42;37.00;1.00
21646;DHT22;10984;45.712;4.800;2023-07-28T06:36:07;37.40;1.00
21646;DHT22;10984;45.712;4.800;2023-07-28T06:38:33;37.50;99.90
21646;DHT22;10984;45.712;4.800;2023-07-28T06:40:59;36.90;99.90
21646;DHT22;10984;45.712;4.800;2023-07-28T06:43:25;37.30;99.90
21646;DHT22;10984;45.712;4.800;2023-07-28T06:45:53;37.10;99.90
21646;DHT22;10984;45.712;4.800;2023-07-28T06:48:18;36.30;99.90
21646;DHT22;10984;45.712;4.800;2023-07-28T06:50:44;34.80;99.90
21646;DHT22;10984;45.712;4.800;2023-07-28T06:53:10;33.20;99.90
21646;DHT22;10984;45.712;4.800;2023-07-28T06:55:35;32.30;99.90
21646;DHT22;10984;45.712;4.800;2023-07-28T06:58:04;31.10;99.90
21646;DHT22;10984;45.712;4.800;2023-07-28T07:00:31;30.20;99.90
21646;DHT22;10984;45.712;4.800;2023-07-28T07:02:56;29.50;99.90
21646;DHT22;10984;45.712;4.800;2023-07-28T07:05:22;29.20;1.00
21646;DHT22;10984;45.712;4.800;2023-07-28T07:07:49;28.90;1.00
21646;DHT22;10984;45.712;4.800;2023-07-28T07:10:15;28.60;1.00
21646;DHT22;10984;45.712;4.800;2023-07-28T07:12:40;28.30;1.00
21646;DHT22;10984;45.712;4.800;2023-07-28T07:15:06;28.30;38.60
21646;DHT22;10984;45.712;4.800;2023-07-28T07:17:32;28.10;99.90
21646;DHT22;10984;45.712;4.800;2023-07-28T07:19:58;28.20;99.90
21646;DHT22;10984;45.712;4.800;2023-07-28T07:22:24;28.30;99.90
21646;DHT22;10984;45.712;4.800;2023-07-28T07:24:50;28.30;99.90
21646;DHT22;10984;45.712;4.800;2023-07-28T07:27:15;28.40;99.90
21646;DHT22;10984;45.712;4.800;2023-07-28T07:29:41;28.40;99.90
21646;DHT22;10984;45.712;4.800;2023-07-28T07:32:07;28.50;99.90
21646;DHT22;10984;45.712;4.800;2023-07-28T07:34:34;28.50;99.90
21646;DHT22;10984;45.712;4.800;2023-07-28T07:37:00;28.60;99.90
21646;DHT22;10984;45.712;4.800;2023-07-28T07:39:26;28.70;99.90
21646;DHT22;10984;45.712;4.800;2023-07-28T07:41:52;28.70;99.90
21646;DHT22;10984;45.712;4.800;2023-07-28T07:44:18;28.60;99.90
21646;DHT22;10984;45.712;4.800;2023-07-28T07:46:43;28.70;99.90
21646;DHT22;10984;45.712;4.800;2023-07-28T07:49:09;28.80;99.90
21646;DHT22;10984;45.712;4.800;2023-07-28T07:51:35;29.00;99.90
21646;DHT22;10984;45.712;4.800;2023-07-28T07:54:00;29.00;99.90
21646;DHT22;10984;45.712;4.800;2023-07-28T07:56:45;29.00;99.90
21646;DHT22;10984;45.712;4.800;2023-07-28T07:59:12;29.00;99.90
21646;DHT22;10984;45.712;4.800;2023-07-28T08:01:37;29.00;99.90
21646;DHT22;10984;45.712;4.800;2023-07-28T08:04:03;29.20;99.90
21646;DHT22;10984;45.712;4.800;2023-07-28T08:06:29;29.20;99.90
21646;DHT22;10984;45.712;4.800;2023-07-28T08:08:55;29.10;99.90
21646;DHT22;10984;45.712;4.800;2023-07-28T08:11:22;29.20;99.90
21646;DHT22;10984;45.712;4.800;2023-07-28T08:13:47;29.10;99.90
21646;DHT22;10984;45.712;4.800;2023-07-28T08:16:14;29.00;99.90
21646;DHT22;10984;45.712;4.800;2023-07-28T08:18:39;28.90;99.90
21646;DHT22;10984;45.712;4.800;2023-07-28T08:21:05;29.00;99.90
21646;DHT22;10984;45.712;4.800;2023-07-28T08:23:30;29.10;99.90
21646;DHT22;10984;45.712;4.800;2023-07-28T08:25:56;28.90;99.90
21646;DHT22;10984;45.712;4.800;2023-07-28T08:28:22;28.80;1.00
21646;DHT22;10984;45.712;4.800;2023-07-28T08:31:06;28.90;1.00
21646;DHT22;10984;45.712;4.800;2023-07-28T08:33:32;29.00;1.00
21646;DHT22;10984;45.712;4.800;2023-07-28T08:35:57;29.00;99.90
21646;DHT22;10984;45.712;4.800;2023-07-28T08:38:23;28.90;99.90
21646;DHT22;10984;45.712;4.800;2023-07-28T08:40:49;28.80;1.00
21646;DHT22;10984;45.712;4.800;2023-07-28T08:43:14;28.70;1.00
21646;DHT22;10984;45.712;4.800;2023-07-28T08:45:40;28.50;1.00
21646;DHT22;10984;45.712;4.800;2023-07-28T08:48:06;28.60;1.00
21646;DHT22;10984;45.712;4.800;2023-07-28T08:50:31;28.80;1.00
21646;DHT22;10984;45.712;4.800;2023-07-28T08:52:58;28.70;1.00
21646;DHT22;10984;45.712;4.800;2023-07-28T08:55:25;28.60;1.00
21646;DHT22;10984;45.712;4.800;2023-07-28T08:57:50;28.70;1.00
21646;DHT22;10984;45.712;4.800;2023-07-28T09:00:16;28.70;1.00
21646;DHT22;10984;45.712;4.800;2023-07-28T09:02:43;28.60;1.00
21646;DHT22;10984;45.712;4.800;2023-07-28T09:05:27;28.60;1.00
21646;DHT22;10984;45.712;4.800;2023-07-28T09:07:58;28.70;1.00
21646;DHT22;10984;45.712;4.800;2023-07-28T09:10:23;28.70;1.00
21646;DHT22;10984;45.712;4.800;2023-07-28T09:12:51;28.70;1.00
21646;DHT22;10984;45.712;4.800;2023-07-28T09:15:17;28.90;1.00
21646;DHT22;10984;45.712;4.800;2023-07-28T09:17:44;29.20;1.00
21646;DHT22;10984;45.712;4.800;2023-07-28T09:22:57;29.60;1.00
21646;DHT22;10984;45.712;4.800;2023-07-28T09:25:23;29.80;1.00
21646;DHT22;10984;45.712;4.800;2023-07-28T09:27:50;30.00;1.00
21646;DHT22;10984;45.712;4.800;2023-07-28T09:30:16;30.00;99.90
21646;DHT22;10984;45.712;4.800;2023-07-28T09:32:47;30.00;1.00
21646;DHT22;10984;45.712;4.800;2023-07-28T09:35:14;30.10;99.90
21646;DHT22;10984;45.712;4.800;2023-07-28T09:37:41;30.10;99.90
21646;DHT22;10984;45.712;4.800;2023-07-28T09:40:12;30.10;99.90
21646;DHT22;10984;45.712;4.800;2023-07-28T09:42:39;29.80;99.90
21646;DHT22;10984;45.712;4.800;2023-07-28T09:45:05;29.70;99.90
21646;DHT22;10984;45.712;4.800;2023-07-28T09:47:34;29.80;99.90
21646;DHT22;10984;45.712;4.800;2023-07-28T09:50:03;29.80;99.90
21646;DHT22;10984;45.712;4.800;2023-07-28T09:52:34;29.80;99.90
21646;DHT22;10984;45.712;4.800;2023-07-28T09:55:06;29.70;99.90
21646;DHT22;10984;45.712;4.800;2023-07-28T10:00:22;29.70;99.90
21646;DHT22;10984;45.712;4.800;2023-07-28T10:02:49;29.60;99.90
21646;DHT22;10984;45.712;4.800;2023-07-28T10:05:15;29.60;99.90
21646;DHT22;10984;45.712;4.800;2023-07-28T10:07:59;29.50;99.90
21646;DHT22;10984;45.712;4.800;2023-07-28T10:10:26;29.30;99.90
21646;DHT22;10984;45.712;4.800;2023-07-28T10:12:54;29.20;99.90
21646;DHT22;10984;45.712;4.800;2023-07-28T10:15:38;29.30;99.90
21646;DHT22;10984;45.712;4.800;2023-07-28T10:18:07;29.50;99.90
21646;DHT22;10984;45.712;4.800;2023-07-28T10:20:51;29.50;99.90
21646;DHT22;10984;45.712;4.800;2023-07-28T10:23:20;29.70;99.90
21646;DHT22;10984;45.712;4.800;2023-07-28T10:25:46;29.60;99.90
21646;DHT22;10984;45.712;4.800;2023-07-28T10:31:14;29.40;99.90
21646;DHT22;10984;45.712;4.800;2023-07-28T10:33:54;29.30;99.90
21646;DHT22;10984;45.712;4.800;2023-07-28T10:36:39;29.20;99.90
21646;DHT22;10984;45.712;4.800;2023-07-28T10:41:30;29.00;29.30
21646;DHT22;10984;45.712;4.800;2023-07-28T10:44:14;29.00;1.00
21646;DHT22;10984;45.712;4.800;2023-07-28T10:46:40;28.80;1.00
21646;DHT22;10984;45.712;4.800;2023-07-28T10:49:05;28.70;1.00
21646;DHT22;10984;45.712;4.800;2023-07-28T10:51:33;28.70;1.00
21646;DHT22;10984;45.712;4.800;2023-07-28T10:54:01;28.80;1.00
21646;DHT22;10984;45.712;4.800;2023-07-28T10:56:48;28.80;1.00
21646;DHT22;10984;45.712;4.800;2023-07-28T10:59:14;28.90;1.00
21646;DHT22;10984;45.712;4.800;2023-07-28T11:01:41;29.00;1.00
21646;DHT22;10984;45.712;4.800;2023-07-28T11:04:26;29.10;1.00
21646;DHT22;10984;45.712;4.800;2023-07-28T11:06:51;29.20;1.00
21646;DHT22;10984;45.712;4.800;2023-07-28T11:09:19;29.50;1.00
21646;DHT22;10984;45.712;4.800;2023-07-28T11:11:48;29.70;1.00
21646;DHT22;10984;45.712;4.800;2023-07-28T11:14:16;29.90;1.00
21646;DHT22;10984;45.712;4.800;2023-07-28T11:16:42;30.10;1.00
21646;DHT22;10984;45.712;4.800;2023-07-28T11:19:11;30.10;1.00
21646;DHT22;10984;45.712;4.800;2023-07-28T11:21:56;30.10;1.00
21646;DHT22;10984;45.712;4.800;2023-07-28T11:24:23;29.90;1.00
21646;DHT22;10984;45.712;4.800;2023-07-28T11:26:49;29.90;1.00
21646;DHT22;10984;45.712;4.800;2023-07-28T11:29:16;29.90;1.00
21646;DHT22;10984;45.712;4.800;2023-07-28T11:31:42;29.90;1.00
21646;DHT22;10984;45.712;4.800;2023-07-28T11:34:26;29.90;1.00
21646;DHT22;10984;45.712;4.800;2023-07-28T11:36:51;29.90;1.00
21646;DHT22;10984;45.712;4.800;2023-07-28T11:39:17;29.90;1.00
21646;DHT22;10984;45.712;4.800;2023-07-28T11:41:47;29.80;1.00
21646;DHT22;10984;45.712;4.800;2023-07-28T11:44:14;29.90;1.00
21646;DHT22;10984;45.712;4.800;2023-07-28T11:46:42;30.00;1.00
21646;DHT22;10984;45.712;4.800;2023-07-28T11:49:26;30.00;1.00
21646;DHT22;10984;45.712;4.800;2023-07-28T11:51:54;30.10;1.00
21646;DHT22;10984;45.712;4.800;2023-07-28T11:54:39;30.30;99.90
21646;DHT22;10984;45.712;4.800;2023-07-28T11:57:07;30.40;1.00
21646;DHT22;10984;45.712;4.800;2023-07-28T11:59:34;30.50;99.90
21646;DHT22;10984;45.712;4.800;2023-07-28T12:02:04;30.50;99.90
21646;DHT22;10984;45.712;4.800;2023-07-28T12:04:34;30.40;1.00
21646;DHT22;10984;45.712;4.800;2023-07-28T12:10:06;30.20;99.90
21646;DHT22;10984;45.712;4.800;2023-07-28T12:12:53;30.10;99.90
21646;DHT22;10984;45.712;4.800;2023-07-28T12:18:22;30.00;99.90
21646;DHT22;10984;45.712;4.800;2023-07-28T12:20:50;30.00;99.90
21646;DHT22;10984;45.712;4.800;2023-07-28T12:23:17;30.00;99.90
21646;DHT22;10984;45.712;4.800;2023-07-28T12:25:44;30.10;1.00
21646;DHT22;10984;45.712;4.800;2023-07-28T12:28:10;30.20;1.00
21646;DHT22;10984;45.712;4.800;2023-07-28T12:30:36;30.40;1.00
21646;DHT22;10984;45.712;4.800;2023-07-28T12:33:03;30.50;1.00
21646;DHT22;10984;45.712;4.800;2023-07-28T12:35:30;30.50;1.00
21646;DHT22;10984;45.712;4.800;2023-07-28T12:37:58;30.60;99.90
21646;DHT22;10984;45.712;4.800;2023-07-28T12:40:26;30.70;1.00
21646;DHT22;10984;45.712;4.800;2023-07-28T12:42:52;30.80;99.90
21646;DHT22;10984;45.712;4.800;2023-07-28T12:45:18;30.90;99.90
21646;DHT22;10984;45.712;4.800;2023-07-28T12:47:44;30.80;1.00
21646;DHT22;10984;45.712;4.800;2023-07-28T12:50:10;30.90;1.00
21646;DHT22;10984;45.712;4.800;2023-07-28T12:52:36;30.80;99.90
21646;DHT22;10984;45.712;4.800;2023-07-28T12:55:02;30.70;99.90
21646;DHT22;10984;45.712;4.800;2023-07-28T12:57:28;30.60;99.90
21646;DHT22;10984;45.712;4.800;2023-07-28T12:59:54;30.50;1.00
21646;DHT22;10984;45.712;4.800;2023-07-28T13:02:19;30.40;1.00
21646;DHT22;10984;45.712;4.800;2023-07-28T13:04:45;30.30;1.00
21646;DHT22;10984;45.712;4.800;2023-07-28T13:07:11;30.30;1.00
21646;DHT22;10984;45.712;4.800;2023-07-28T13:09:36;30.10;1.00
21646;DHT22;10984;45.712;4.800;2023-07-28T13:12:02;30.10;1.00
21646;DHT22;10984;45.712;4.800;2023-07-28T13:14:28;30.00;1.00
21646;DHT22;10984;45.712;4.800;2023-07-28T13:16:54;29.90;1.00
21646;DHT22;10984;45.712;4.800;2023-07-28T13:19:19;29.80;1.00
21646;DHT22;10984;45.712;4.800;2023-07-28T13:21:45;29.80;1.00
21646;DHT22;10984;45.712;4.800;2023-07-28T13:24:11;29.90;1.00
21646;DHT22;10984;45.712;4.800;2023-07-28T13:26:37;29.90;1.00
21646;DHT22;10984;45.712;4.800;2023-07-28T13:29:02;29.90;1.00
21646;DHT22;10984;45.712;4.800;2023-07-28T13:31:28;30.10;1.00
21646;DHT22;10984;45.712;4.800;2023-07-28T13:33:54;30.20;1.00
21646;DHT22;10984;45.712;4.800;2023-07-28T13:36:20;30.30;1.00
21646;DHT22;10984;45.712;4.800;2023-07-28T13:38:45;30.30;1.00
21646;DHT22;10984;45.712;4.800;2023-07-28T13:41:11;30.40;1.00
21646;DHT22;10984;45.712;4.800;2023-07-28T13:43:37;30.20;1.00
21646;DHT22;10984;45.712;4.800;2023-07-28T13:46:22;30.20;1.00
21646;DHT22;10984;45.712;4.800;2023-07-28T13:48:47;30.10;1.00
21646;DHT22;10984;45.712;4.800;2023-07-28T13:51:13;29.90;1.00
21646;DHT22;10984;45.712;4.800;2023-07-28T13:53:38;29.80;1.00
21646;DHT22;10984;45.712;4.800;2023-07-28T13:56:04;29.60;1.00
21646;DHT22;10984;45.712;4.800;2023-07-28T13:58:30;29.50;1.00
21646;DHT22;10984;45.712;4.800;2023-07-28T14:00:56;29.40;1.00
21646;DHT22;10984;45.712;4.800;2023-07-28T14:03:22;29.30;1.00
21646;DHT22;10984;45.712;4.800;2023-07-28T14:05:47;29.40;1.00
21646;DHT22;10984;45.712;4.800;2023-07-28T14:08:13;29.40;1.00
21646;DHT22;10984;45.712;4.800;2023-07-28T14:10:44;29.50;1.00
21646;DHT22;10984;45.712;4.800;2023-07-28T14:13:09;29.60;1.00
21646;DHT22;10984;45.712;4.800;2023-07-28T14:15:35;29.80;1.00
21646;DHT22;10984;45.712;4.800;2023-07-28T14:18:01;30.00;1.00
21646;DHT22;10984;45.712;4.800;2023-07-28T14:20:26;30.10;1.00
21646;DHT22;10984;45.712;4.800;2023-07-28T14:22:52;30.20;1.00
21646;DHT22;10984;45.712;4.800;2023-07-28T14:25:17;30.30;1.00
21646;DHT22;10984;45.712;4.800;2023-07-28T14:27:43;30.50;1.00
21646;DHT22;10984;45.712;4.800;2023-07-28T14:30:09;30.30;1.00
21646;DHT22;10984;45.712;4.800;2023-07-28T14:32:35;30.30;1.00
21646;DHT22;10984;45.712;4.800;2023-07-28T14:35:00;30.20;1.00
21646;DHT22;10984;45.712;4.800;2023-07-28T14:37:26;30.30;99.90
21646;DHT22;10984;45.712;4.800;2023-07-28T14:39:51;30.50;99.90
21646;DHT22;10984;45.712;4.800;2023-07-28T14:42:19;30.80;99.90
21646;DHT22;10984;45.712;4.800;2023-07-28T14:44:45;31.00;99.90
21646;DHT22;10984;45.712;4.800;2023-07-28T14:47:10;31.00;99.90
21646;DHT22;10984;45.712;4.800;2023-07-28T14:49:36;31.20;99.90
21646;DHT22;10984;45.712;4.800;2023-07-28T14:52:02;31.50;99.90
21646;DHT22;10984;45.712;4.800;2023-07-28T14:54:27;31.60;99.90
21646;DHT22;10984;45.712;4.800;2023-07-28T14:56:53;31.80;99.90
21646;DHT22;10984;45.712;4.800;2023-07-28T14:59:18;31.90;99.90
21646;DHT22;10984;45.712;4.800;2023-07-28T15:01:44;32.00;99.90
21646;DHT22;10984;45.712;4.800;2023-07-28T15:04:10;32.00;99.90
21646;DHT22;10984;45.712;4.800;2023-07-28T15:06:36;32.10;99.90
21646;DHT22;10984;45.712;4.800;2023-07-28T15:09:02;32.20;99.90
21646;DHT22;10984;45.712;4.800;2023-07-28T15:11:28;32.10;1.00
21646;DHT22;10984;45.712;4.800;2023-07-28T15:13:54;32.00;91.90
21646;DHT22;10984;45.712;4.800;2023-07-28T15:16:19;31.90;69.60
21646;DHT22;10984;45.712;4.800;2023-07-28T15:18:45;31.80;26.20
21646;DHT22;10984;45.712;4.800;2023-07-28T15:21:11;31.60;8.70
21646;DHT22;10984;45.712;4.800;2023-07-28T15:23:37;31.30;1.00
21646;DHT22;10984;45.712;4.800;2023-07-28T15:26:03;31.20;1.00
21646;DHT22;10984;45.712;4.800;2023-07-28T15:28:29;31.20;3.10
21646;DHT22;10984;45.712;4.800;2023-07-28T15:30:54;31.20;44.50
21646;DHT22;10984;45.712;4.800;2023-07-28T15:33:21;31.10;99.90
21646;DHT22;10984;45.712;4.800;2023-07-28T15:36:05;31.20;34.30
21646;DHT22;10984;45.712;4.800;2023-07-28T15:38:31;31.20;38.50
21646;DHT22;10984;45.712;4.800;2023-07-28T15:40:57;31.30;99.90
21646;DHT22;10984;45.712;4.800;2023-07-28T15:43:23;31.40;90.90
21646;DHT22;10984;45.712;4.800;2023-07-28T15:45:49;31.40;95.70
21646;DHT22;10984;45.712;4.800;2023-07-28T15:48:17;31.40;73.50
21646;DHT22;10984;45.712;4.800;2023-07-28T15:50:43;31.40;90.00
21646;DHT22;10984;45.712;4.800;2023-07-28T15:53:08;31.40;99.90
21646;DHT22;10984;45.712;4.800;2023-07-28T15:55:34;31.30;99.90
21646;DHT22;10984;45.712;4.800;2023-07-28T15:58:01;31.20;99.90
21646;DHT22;10984;45.712;4.800;2023-07-28T16:00:27;31.00;99.90
21646;DHT22;10984;45.712;4.800;2023-07-28T16:02:52;30.80;43.00